createdAt,value
2023-01-21T00:02:11.874Z,1.10
2023-01-21T00:07:10.873Z,1.00
2023-01-21T00:12:09.971Z,1.10
2023-01-21T00:17:08.900Z,1.10
2023-01-21T00:22:08.024Z,1.10
2023-01-21T00:27:07.002Z,1.10
2023-01-21T00:32:06.068Z,1.10
2023-01-21T00:37:04.845Z,1.10
2023-01-21T00:42:04.697Z,1.10
2023-01-21T00:47:03.884Z,1.00
2023-01-21T00:52:02.945Z,1.00
2023-01-21T00:57:01.829Z,1.00
2023-01-21T01:02:00.913Z,1.00
2023-01-21T01:06:59.956Z,1.00
2023-01-21T01:11:58.953Z,1.00
2023-01-21T01:16:57.962Z,1.00
2023-01-21T01:21:56.966Z,1.00
2023-01-21T01:26:55.841Z,1.00
2023-01-21T01:31:55.081Z,0.90
2023-01-21T01:36:54.005Z,0.90
2023-01-21T01:41:52.945Z,0.80
2023-01-21T01:46:51.865Z,0.80
2023-01-21T01:51:51.036Z,0.70
2023-01-21T01:56:50.558Z,0.60
2023-01-21T02:01:49.887Z,0.50
2023-01-21T02:06:48.873Z,0.60
2023-01-21T02:11:47.886Z,0.50
2023-01-21T02:16:47.023Z,0.50
2023-01-21T02:21:45.990Z,0.60
2023-01-21T02:26:44.924Z,0.50
2023-01-21T02:31:43.983Z,0.50
2023-01-21T02:36:43.302Z,0.50
2023-01-21T02:41:41.952Z,0.50
2023-01-21T02:46:41.075Z,0.50
2023-01-21T02:51:39.969Z,0.40
2023-01-21T02:56:38.836Z,0.50
2023-01-21T03:01:38.001Z,0.50
2023-01-21T03:06:36.883Z,0.50
2023-01-21T03:11:36.006Z,0.50
2023-01-21T03:16:52.951Z,0.50
2023-01-21T03:21:52.066Z,0.50
2023-01-21T03:26:51.142Z,0.50
2023-01-21T03:31:49.918Z,0.50
2023-01-21T03:36:48.898Z,0.40
2023-01-21T03:41:47.902Z,0.40
2023-01-21T03:46:46.940Z,0.40
2023-01-21T03:51:46.012Z,0.40
2023-01-21T03:56:44.936Z,0.40
2023-01-21T04:01:43.960Z,0.40
2023-01-21T04:06:43.052Z,0.40
2023-01-21T04:11:41.904Z,0.40
2023-01-21T04:16:41.146Z,0.30
2023-01-21T04:21:39.908Z,0.30
2023-01-21T04:26:39.230Z,0.30
2023-01-21T04:31:37.965Z,0.30
2023-01-21T04:36:36.927Z,0.30
2023-01-21T04:41:36.028Z,0.20
2023-01-21T04:46:35.164Z,0.20
2023-01-21T04:51:34.160Z,0.20
2023-01-21T04:56:33.168Z,0.20
2023-01-21T05:01:35.295Z,0.20
2023-01-21T05:06:33.964Z,0.10
2023-01-21T05:11:32.969Z,0.10
2023-01-21T05:16:32.018Z,0.10
2023-01-21T05:21:30.998Z,0.10
2023-01-21T05:26:30.011Z,0.10
2023-01-21T05:31:32.205Z,0.00
2023-01-21T05:36:34.060Z,0.10
2023-01-21T05:41:32.987Z,0.00
2023-01-21T05:46:31.995Z,0.00
2023-01-21T05:51:31.000Z,0.00
2023-01-21T05:56:29.995Z,0.10
2023-01-21T06:01:29.020Z,0.10
2023-01-21T06:06:28.043Z,0.10
2023-01-21T06:11:27.053Z,0.10
2023-01-21T06:16:26.110Z,0.10
2023-01-21T06:21:25.159Z,0.10
2023-01-21T06:26:25.558Z,0.00
2023-01-21T06:31:25.199Z,0.00
2023-01-21T06:36:24.192Z,-0.10
2023-01-21T06:41:23.135Z,-0.10
2023-01-21T06:46:22.233Z,-0.10
2023-01-21T06:51:21.234Z,-0.10
2023-01-21T06:56:20.077Z,-0.20
2023-01-21T07:01:19.053Z,-0.20
2023-01-21T07:06:17.991Z,-0.30
2023-01-21T07:11:17.001Z,-0.30
2023-01-21T07:16:16.051Z,-0.40
2023-01-21T07:21:15.024Z,-0.40
2023-01-21T07:26:14.804Z,-0.40
2023-01-21T07:31:14.150Z,-0.40
2023-01-21T07:36:12.989Z,-0.40
2023-01-21T07:41:11.983Z,-0.50
2023-01-21T07:46:11.113Z,-0.50
2023-01-21T07:51:09.967Z,-0.60
2023-01-21T07:56:09.705Z,-0.60
2023-01-21T08:01:09.153Z,-0.70
2023-01-21T08:06:08.170Z,-0.70
2023-01-21T08:11:07.287Z,-0.70
2023-01-21T08:16:06.144Z,-0.70
2023-01-21T08:21:05.312Z,-0.80
2023-01-21T08:26:04.007Z,-0.70
2023-01-21T08:31:03.057Z,-0.50
2023-01-21T08:36:02.014Z,-0.30
2023-01-21T08:41:01.039Z,-0.10
2023-01-21T08:46:01.129Z,0.10
2023-01-21T08:51:00.184Z,0.30
2023-01-21T08:55:59.591Z,0.50
2023-01-21T09:00:58.215Z,0.80
2023-01-21T09:05:56.933Z,1.10
2023-01-21T09:11:02.223Z,1.30
2023-01-21T09:16:01.097Z,1.50
2023-01-21T09:21:00.119Z,1.70
2023-01-21T09:25:59.110Z,1.90
2023-01-21T09:30:58.177Z,2.00
2023-01-21T09:35:57.187Z,2.20
2023-01-21T09:40:56.159Z,2.40
2023-01-21T09:45:55.096Z,2.50
2023-01-21T09:50:54.232Z,2.60
2023-01-21T09:55:53.688Z,2.70
2023-01-21T10:00:53.274Z,2.80
2023-01-21T10:05:52.263Z,2.90
2023-01-21T10:10:51.248Z,2.90
2023-01-21T10:15:50.265Z,3.00
2023-01-21T10:20:50.158Z,3.10
2023-01-21T10:25:49.127Z,3.20
2023-01-21T10:30:48.219Z,3.20
2023-01-21T10:35:47.078Z,3.20
2023-01-21T10:40:46.218Z,3.30
2023-01-21T10:45:45.138Z,3.30
2023-01-21T10:50:44.246Z,3.40
2023-01-21T10:55:43.458Z,3.50
2023-01-21T11:00:42.616Z,3.60
2023-01-21T11:05:42.099Z,3.80
2023-01-21T11:10:41.056Z,3.90
2023-01-21T11:15:40.244Z,3.90
2023-01-21T11:20:39.231Z,3.70
2023-01-21T11:25:38.075Z,3.50
2023-01-21T11:30:50.120Z,3.80
2023-01-21T11:35:38.132Z,4.20
2023-01-21T11:40:37.421Z,4.40
2023-01-21T11:45:36.481Z,4.60
2023-01-21T11:50:35.158Z,4.90
2023-01-21T11:55:34.352Z,5.00
2023-01-21T12:00:33.173Z,5.20
2023-01-21T12:05:32.188Z,5.30
2023-01-21T12:10:31.210Z,5.30
2023-01-21T12:15:30.198Z,5.40
2023-01-21T12:20:29.206Z,5.30
2023-01-21T12:25:28.518Z,5.10
2023-01-21T12:30:27.381Z,5.00
2023-01-21T12:35:26.312Z,5.00
2023-01-21T12:40:25.267Z,5.10
2023-01-21T12:45:24.530Z,5.10
2023-01-21T12:50:23.300Z,5.10
2023-01-21T12:55:22.361Z,5.10
2023-01-21T13:00:24.181Z,5.20
2023-01-21T13:05:23.201Z,5.20
2023-01-21T13:10:22.189Z,5.10
2023-01-21T13:15:21.132Z,5.10
2023-01-21T13:20:20.282Z,5.30
2023-01-21T13:25:19.268Z,5.30
2023-01-21T13:30:18.515Z,5.20
2023-01-21T13:35:18.331Z,4.80
2023-01-21T13:40:17.230Z,4.50
2023-01-21T13:45:16.322Z,4.30
2023-01-21T13:50:17.291Z,4.20
2023-01-21T13:55:17.174Z,4.20
2023-01-21T14:00:16.476Z,4.10
2023-01-21T14:05:16.047Z,4.10
2023-01-21T14:10:15.478Z,4.00
2023-01-21T14:15:15.264Z,3.90
2023-01-21T14:20:14.447Z,3.70
2023-01-21T14:25:13.393Z,3.70
2023-01-21T14:30:12.378Z,3.70
2023-01-21T14:35:13.206Z,3.60
2023-01-21T14:40:12.170Z,3.60
2023-01-21T14:45:12.545Z,3.60
2023-01-21T14:50:11.239Z,3.70
2023-01-21T14:55:10.241Z,3.70
2023-01-21T15:00:09.164Z,3.70
2023-01-21T15:05:08.199Z,3.80
2023-01-21T15:10:07.263Z,3.80
2023-01-21T15:15:06.265Z,3.60
2023-01-21T15:20:05.334Z,3.60
2023-01-21T15:25:04.301Z,3.60
2023-01-21T15:30:03.322Z,3.70
2023-01-21T15:35:03.028Z,3.90
2023-01-21T15:40:02.309Z,4.00
2023-01-21T15:45:01.358Z,3.90
2023-01-21T15:50:00.389Z,4.00
2023-01-21T15:55:00.111Z,3.80
2023-01-21T15:59:59.223Z,3.70
2023-01-21T16:04:58.205Z,3.60
2023-01-21T16:09:57.247Z,3.60
2023-01-21T16:14:56.271Z,3.50
2023-01-21T16:19:55.239Z,3.50
2023-01-21T16:24:54.291Z,3.40
2023-01-21T16:29:53.205Z,3.40
2023-01-21T16:34:52.300Z,3.30
2023-01-21T16:39:51.228Z,3.40
2023-01-21T16:44:50.307Z,3.30
2023-01-21T16:49:49.341Z,3.30
2023-01-21T16:54:48.658Z,3.30
2023-01-21T16:59:48.028Z,3.30
2023-01-21T17:04:47.263Z,3.20
2023-01-21T17:09:46.421Z,3.10
2023-01-21T17:14:45.391Z,3.10
2023-01-21T17:19:44.408Z,3.10
2023-01-21T17:24:45.013Z,3.10
2023-01-21T17:29:45.425Z,3.00
2023-01-21T17:34:44.351Z,3.00
2023-01-21T17:39:43.224Z,3.00
2023-01-21T17:44:42.328Z,2.90
2023-01-21T17:49:43.432Z,2.80
2023-01-21T17:54:42.402Z,2.80
2023-01-21T17:59:41.436Z,2.80
2023-01-21T18:04:40.444Z,2.80
2023-01-21T18:09:39.244Z,2.70
2023-01-21T18:14:38.632Z,2.70
2023-01-21T18:19:37.215Z,2.70
2023-01-21T18:24:36.960Z,2.70
2023-01-21T18:29:36.296Z,2.70
2023-01-21T18:34:35.293Z,2.70
2023-01-21T18:39:34.278Z,2.70
2023-01-21T18:44:33.328Z,2.70
2023-01-21T18:49:32.477Z,2.70
2023-01-21T18:54:31.370Z,2.70
2023-01-21T18:59:30.259Z,2.60
2023-01-21T19:04:29.376Z,2.60
2023-01-21T19:09:28.429Z,2.60
2023-01-21T19:14:27.407Z,2.70
2023-01-21T19:19:26.705Z,2.70
2023-01-21T19:24:25.424Z,2.60
2023-01-21T19:29:26.339Z,2.70
2023-01-21T19:34:26.371Z,2.70
2023-01-21T19:39:25.325Z,2.80
2023-01-21T19:44:24.388Z,2.80
2023-01-21T19:49:23.359Z,2.80
2023-01-21T19:54:22.395Z,2.90
2023-01-21T19:59:21.359Z,2.80
2023-01-21T20:04:20.380Z,2.80
2023-01-21T20:09:19.803Z,2.80
2023-01-21T20:14:18.503Z,2.90
2023-01-21T20:19:18.716Z,2.90
2023-01-21T20:24:17.434Z,2.90
2023-01-21T20:29:16.514Z,2.90
2023-01-21T20:34:15.470Z,2.90
2023-01-21T20:39:14.262Z,2.90
2023-01-21T20:44:13.552Z,2.90
2023-01-21T20:49:12.884Z,3.00
2023-01-21T20:54:11.611Z,3.00
2023-01-21T20:59:10.574Z,2.90
2023-01-21T21:04:09.530Z,2.90
2023-01-21T21:09:08.382Z,2.80
2023-01-21T21:14:07.344Z,2.70
2023-01-21T21:19:06.364Z,2.70
2023-01-21T21:24:06.314Z,2.80
2023-01-21T21:29:05.405Z,2.90
2023-01-21T21:34:04.340Z,2.80
2023-01-21T21:39:03.529Z,2.70
2023-01-21T21:44:02.436Z,2.70
2023-01-21T21:49:01.544Z,2.80
2023-01-21T21:54:00.471Z,2.80
2023-01-21T21:58:59.462Z,2.80
2023-01-21T22:03:58.487Z,2.80
2023-01-21T22:08:58.263Z,2.90
2023-01-21T22:13:57.531Z,3.00
2023-01-21T22:18:56.545Z,2.90
2023-01-21T22:23:55.354Z,2.90
2023-01-21T22:28:54.353Z,2.90
2023-01-21T22:33:53.353Z,2.90
2023-01-21T22:38:52.294Z,2.90
2023-01-21T22:43:51.372Z,2.90
2023-01-21T22:48:50.316Z,2.90
2023-01-21T22:53:49.577Z,2.90
2023-01-21T22:58:48.417Z,2.90
2023-01-21T23:03:47.385Z,2.80
2023-01-21T23:08:46.440Z,2.80
2023-01-21T23:13:45.557Z,2.70
2023-01-21T23:18:44.381Z,2.70
2023-01-21T23:23:43.378Z,2.70
2023-01-21T23:28:42.853Z,2.60
2023-01-21T23:33:41.327Z,2.60
2023-01-21T23:38:40.376Z,2.70
2023-01-21T23:43:39.322Z,2.60
2023-01-21T23:48:38.344Z,2.60
2023-01-21T23:53:37.378Z,2.60
2023-01-21T23:58:36.557Z,2.70
